• Join FlightAware (Why Join?)
  • Login
  • US Flag 
12:24PM EDT


 

Airport Tracker/Info


-or-


 

Live Flight TrackerFlight Track Log ✈ FLG3388 ✈ 08-May-2013 ✈ KMSP - KSAT

Flight Track Log - Related Links

Times and Time Zones

All times are in EDT time to prevent confusion due to time zone crossing. See the FLG3388 flight status page for this flight to view local times or setup timezone preferences in your user account.

Time Position Orientation Groundspeed Altitude Reporting Facility
EDT Latitude Longitude Course Direction KTS MPH feet Rate Location/Type
10:25AM 44.9000 -93.2667 152° Southeast 181 208 2,500  Level Minneapolis TRACON
10:25AM 44.8958 -93.2989 260° West 190 219 3,100 1,560 Climbing Minneapolis Center
10:27AM 44.8725 -93.3719 246° West 234 269 4,900 2,400 Climbing Minneapolis Center
10:28AM 44.4520 -93.4045 152° Southeast  Level Estimated
10:28AM 44.7919 -93.3594 174° South 265 305 8,100  Level Minneapolis Center
10:29AM 44.3445 -93.4498 157° South  Level Estimated
10:29AM 44.7292 -93.3078 150° Southeast 269 310 10,600  Level Minneapolis Center
10:30AM 44.2370 -93.4949 152° Southeast  Level Estimated
10:30AM 44.6558 -93.2492 150° Southeast 321 369 12,300  Level Minneapolis Center
10:31AM 44.1290 -93.5400 152° Southeast  Level Estimated
10:31AM 44.5803 -93.1853 149° Southeast 322 371 14,700  Level Minneapolis Center
10:32AM 44.4828 -93.1050 150° Southeast 341 392 17,100 2,040 Climbing Minneapolis Center
10:33AM 44.3972 -93.0347 150° Southeast 357 411 18,900 1,680 Climbing Minneapolis Center
10:34AM 44.3083 -92.9628 150° Southeast 372 428 20,600 1,740 Climbing Minneapolis Center
10:35AM 44.2161 -92.8931 152° Southeast 378 435 22,500 1,620 Climbing Minneapolis Center
10:36AM 44.1197 -92.8267 154° Southeast 387 445 24,000 1,560 Climbing Minneapolis Center
10:37AM 44.0019 -92.7461 154° Southeast 395 455 25,800 1,500 Climbing Minneapolis Center
10:38AM 43.9008 -92.6789 154° Southeast 403 464 27,100 1,260 Climbing Minneapolis Center
10:39AM 43.8086 -92.6136 153° Southeast 413 475 28,500 1,320 Climbing Minneapolis Center
10:40AM 43.7003 -92.5828 168° South 402 463 29,900 1,380 Climbing Minneapolis Center
10:41AM 43.5678 -92.5611 173° South 402 463 31,400 1,200 Climbing Minneapolis Center
10:42AM 43.4572 -92.5436 173° South 403 464 32,400 780 Climbing Minneapolis Center
10:43AM 43.3428 -92.5256 173° South 415 478 33,100 780 Climbing Minneapolis Center
10:44AM 43.2267 -92.5075 174° South 423 487 34,100 840 Climbing Minneapolis Center
10:45AM 43.0864 -92.4844 173° South 429 494 34,900 780 Climbing Minneapolis Center
10:46AM 42.9694 -92.4653 173° South 430 495 35,700 720 Climbing Minneapolis Center
10:47AM 42.8514 -92.4475 174° South 432 497 36,400 600 Climbing Minneapolis Center
10:48AM 42.7314 -92.4286 173° South 438 504 37,000 240 Climbing Minneapolis Center
10:49AM 42.6108 -92.4094 173° South 442 509 37,000  Level Minneapolis Center
10:50AM 42.4667 -92.4064 179° South 438 504 37,000  Level Minneapolis Center
10:51AM 42.3494 -92.4164 184° South 430 495 37,000  Level Minneapolis Center
10:52AM 42.2317 -92.4258 183° South 429 494 37,000  Level Minneapolis Center
10:53AM 42.1144 -92.4358 184° South 429 494 37,000  Level Minneapolis Center
10:54AM 42.0425 -92.4408 183° South 431 496 37,000  Level Chicago Center
10:55AM 41.9244 -92.4514 184° South 432 497 37,000  Level Chicago Center
10:56AM 41.8069 -92.4592 183° South 429 494 37,000  Level Chicago Center
10:57AM 41.6683 -92.4708 184° South 423 487 37,000  Level Chicago Center
10:58AM 41.5519 -92.4806 184° South 422 486 37,000  Level Chicago Center
10:59AM 41.4347 -92.4906 184° South 424 488 37,000  Level Chicago Center
11:00AM 41.3217 -92.4997 183° South 416 479 37,000  Level Chicago Center
11:01AM 41.2075 -92.5069 183° South 412 474 37,000  Level Chicago Center
11:02AM 41.0692 -92.5197 184° South 416 479 37,000  Level Chicago Center
11:03AM 40.9539 -92.5278 183° South 417 480 37,000  Level Chicago Center
11:04AM 40.8378 -92.5361 183° South 421 484 37,000  Level Chicago Center
11:05AM 40.7194 -92.5456 183° South 426 490 37,000  Level Chicago Center
11:06AM 40.6019 -92.5539 183° South 426 490 37,000 -180 Level Kansas City Center
11:07AM 40.4794 -92.5719 186° South 424 488 36,700 -420 Descending Kansas City Center
11:08AM 40.3808 -92.6414 208° Southwest 407 468 36,200 -360 Descending Kansas City Center
11:09AM 40.2994 -92.7178 216° Southwest 398 458 36,000 -120 Descending Kansas City Center
11:10AM 40.1953 -92.8081 214° Southwest 397 457 36,000  Level Kansas City Center
11:11AM 40.1092 -92.8853 214° Southwest 393 452 36,000  Level Kansas City Center
11:12AM 40.0158 -92.9694 215° Southwest 394 453 36,000  Level Kansas City Center
11:13AM 39.9264 -93.0481 214° Southwest 392 451 36,000  Level Kansas City Center
11:14AM 39.8194 -93.1428 214° Southwest 391 450 36,000  Level Kansas City Center
11:15AM 39.7303 -93.2225 215° Southwest 392 451 36,000  Level Kansas City Center
11:16AM 39.6406 -93.3022 214° Southwest 392 451 36,000  Level Kansas City Center
11:17AM 39.5508 -93.3803 214° Southwest 393 452 36,000  Level Kansas City Center
11:19AM 39.4603 -93.4600 214° Southwest 394 453 36,000  Level Kansas City Center
11:20AM 39.3525 -93.5583 215° Southwest 398 458 36,000  Level Kansas City Center
11:21AM 39.2703 -93.6300 214° Southwest 397 457 36,000  Level Kansas City Center
11:22AM 39.1678 -93.7200 214° Southwest 398 458 36,000  Level Kansas City Center
11:23AM 39.0792 -93.7975 214° Southwest 400 460 36,000  Level Kansas City Center
11:24AM 38.9747 -93.8881 214° Southwest 403 464 36,000  Level Kansas City Center
11:25AM 38.8856 -93.9647 214° Southwest 402 463 36,000  Level Kansas City Center
11:26AM 38.7806 -94.0542 214° Southwest 404 465 36,000  Level Kansas City Center
11:27AM 38.6914 -94.1308 214° Southwest 401 461 36,000  Level Kansas City Center
11:28AM 38.5881 -94.2192 214° Southwest 399 459 36,000  Level Kansas City Center
11:29AM 38.5006 -94.2933 214° Southwest 395 455 36,000  Level Kansas City Center
11:30AM 38.4131 -94.3669 213° Southwest 394 453 36,000  Level Kansas City Center
11:31AM 38.3111 -94.4544 214° Southwest 394 453 36,000  Level Kansas City Center
11:32AM 38.2208 -94.5206 210° Southwest 391 450 36,000  Level Kansas City Center
11:33AM 38.1094 -94.5919 207° Southwest 399 459 36,000  Level Kansas City Center
11:34AM 38.0153 -94.6517 207° Southwest 396 456 36,000  Level Kansas City Center
11:35AM 37.9039 -94.7231 207° Southwest 400 460 36,000  Level Kansas City Center
11:36AM 37.8078 -94.7861 207° Southwest 403 464 36,000  Level Kansas City Center
11:37AM 37.6953 -94.8567 206° Southwest 404 465 36,000  Level Kansas City Center
11:38AM 37.5997 -94.9175 207° Southwest 408 470 36,000  Level Kansas City Center
11:39AM 37.4961 -94.9831 207° Southwest 413 475 36,000  Level Kansas City Center
11:40AM 37.3922 -95.0481 206° Southwest 417 480 36,000  Level Kansas City Center
11:41AM 37.2692 -95.1258 207° Southwest 413 475 36,000  Level Kansas City Center
11:42AM 37.1667 -95.1886 206° Southwest 411 473 36,000 180 Level Kansas City Center
11:43AM 37.0644 -95.2528 207° Southwest 411 473 36,400 660 Climbing Kansas City Center
11:44AM 36.9633 -95.3158 206° Southwest 406 467 37,400 720 Climbing Kansas City Center
11:45AM 36.8622 -95.3783 206° Southwest 407 468 38,000 240 Climbing Kansas City Center
11:46AM 36.7611 -95.4419 207° Southwest 407 468 38,000  Level Kansas City Center
11:47AM 36.6378 -95.5175 206° Southwest 411 473 38,000  Level Kansas City Center
11:48AM 36.5339 -95.5811 206° Southwest 411 473 38,000  Level Kansas City Center
11:50AM 36.4319 -95.6431 206° Southwest 408 470 38,000  Level Kansas City Center
11:51AM 36.3311 -95.7047 206° Southwest 405 466 38,000  Level Kansas City Center
11:52AM 36.2181 -95.7731 206° Southwest 402 463 38,000  Level Kansas City Center
11:53AM 36.1122 -95.8169 199° South 402 463 38,000  Level Kansas City Center
11:54AM 36.0042 -95.8539 195° South 403 464 38,000  Level Kansas City Center
11:55AM 35.8964 -95.8917 196° South 403 464 38,000  Level Kansas City Center
11:56AM 35.7875 -95.9303 196° South 407 468 38,000  Level Kansas City Center
11:57AM 35.6789 -95.9678 196° South 406 467 38,000  Level Kansas City Center
11:58AM 35.5714 -96.0050 196° South 411 473 38,000  Level Fort Worth Center
11:59AM 35.4614 -96.0400 195° South 411 473 38,000  Level Fort Worth Center
12:00PM 35.3533 -96.0797 197° South 411 473 38,000  Level Fort Worth Center
12:01PM 35.2431 -96.1172 196° South 416 479 38,000  Level Fort Worth Center
12:02PM 35.1308 -96.1569 196° South 416 479 38,000  Level Fort Worth Center
12:03PM 35.0167 -96.1967 196° South 416 479 38,000  Level Fort Worth Center
12:04PM 34.9086 -96.2336 196° South 411 473 38,000  Level Fort Worth Center
12:05PM 34.7942 -96.2706 195° South 416 479 38,000  Level Fort Worth Center
12:06PM 34.6797 -96.3100 196° South 416 479 38,000  Level Fort Worth Center
12:07PM 34.5675 -96.3469 195° South 416 479 38,000  Level Fort Worth Center
12:08PM 34.4531 -96.3861 196° South 421 484 38,000  Level Fort Worth Center
12:09PM 34.3406 -96.4275 197° South 421 484 38,000  Level Fort Worth Center
12:10PM 34.2261 -96.4667 196° South 427 491 38,000  Level Fort Worth Center
12:11PM 34.1117 -96.5028 195° South 427 491 38,000  Level Fort Worth Center
12:12PM 33.9972 -96.5442 197° South 427 491 38,000  Level Fort Worth Center
12:13PM 33.8806 -96.5803 194° South 432 497 38,000  Level Fort Worth Center
12:14PM 33.7681 -96.6189 196° South 426 490 38,000  Level Fort Worth Center
12:15PM 33.6661 -96.6522 195° South 426 490 38,000  Level Fort Worth Center
12:16PM 33.5369 -96.6958 196° South 434 499 38,000  Level Fort Worth Center
12:17PM 33.4328 -96.7289 195° South 434 499 38,000  Level Fort Worth Center
12:18PM 33.3036 -96.7722 196° South 434 499 38,000  Level Fort Worth Center
12:19PM 33.1994 -96.8078 196° South 434 499 38,000  Level Fort Worth Center
12:20PM 33.0700 -96.8508 196° South 439 505 38,000  Level Fort Worth Center
12:21PM 32.9556 -96.8836 194° South 433 498 38,000  Level Fort Worth Center
12:22PM 32.8344 -96.9189 194° South 433 498 38,000  Level Fort Worth Center
12:23PM 32.7197 -96.9542 195° South 433 498 38,000  Level Fort Worth Center
12:24PM 32.6008 -96.9892 194° South 433 498 38,000  Level Fort Worth Center
12:25PM 32.4967 -97.0192 194° South 433 498 38,000  Level Fort Worth Center
12:26PM 32.3672 -97.0592 195° South 428 493 38,000  Level Fort Worth Center
12:27PM 32.2631 -97.0892 194° South 433 498 38,000  Level Fort Worth Center
12:28PM 32.1336 -97.1289 195° South 433 498 38,000  Level Fort Worth Center
12:29PM 32.0147 -97.1658 195° South 438 504 38,000  Level Fort Worth Center
12:30PM 31.8917 -97.2006 193° South 449 517 38,000  Level Fort Worth Center
12:31PM 31.7686 -97.2375 194° South 449 517 38,000  Level Fort Worth Center
12:33PM 31.5008 -97.2483 182° South 481 554 38,000  Level Houston Center
12:34PM 31.3486 -97.2272 173° South 477 549 38,000  Level Houston Center
12:35PM 31.2158 -97.2164 176° South 474 545 38,000 -480 Level Houston Center
12:36PM 31.0936 -97.2547 195° South 455 524 37,100 -1,560 Descending Houston Center
12:37PM 30.9742 -97.2989 198° South 455 524 34,800 -2,400 Descending Houston Center
12:38PM 30.8372 -97.3539 199° South 456 525 32,200 -2,400 Descending Houston Center
12:39PM 30.7178 -97.3989 198° South 452 520 29,900 -2,280 Descending Houston Center
12:40PM 30.5989 -97.4447 198° South 446 513 27,500 -2,280 Descending Houston Center
12:41PM 30.4883 -97.4886 199° South 424 488 25,300 -2,160 Descending Houston Center
12:42PM 30.3828 -97.5283 198° South 399 459 23,100 -2,160 Descending Houston Center
12:43PM 30.2711 -97.5317 181° South 402 463 20,900 -2,100 Descending Houston Center
12:44PM 30.1636 -97.5411 184° South 387 445 18,800 -1,920 Descending Houston Center
12:45PM 30.1117 -97.6097 229° Southwest 328 377 17,500 -1,800 Descending Houston Center
12:45PM 30.0853 -97.6386 223° Southwest 344 396 17,000 -1,620 Descending Houston Center
12:46PM 30.0306 -97.7025 225° Southwest 339 390 15,700 -1,560 Descending Houston Center
12:47PM 29.9608 -97.7861 226° Southwest 381 438 14,200 -1,320 Descending Houston Center
12:48PM 29.8922 -97.8817 230° Southwest 366 421 13,000 -1,140 Descending Houston Center
12:49PM 29.8506 -97.9739 243° Southwest 355 409 12,000 -1,320 Descending Houston Center
12:49PM 29.8372 -98.0050 244° Southwest 351 404 11,500 -1,200 Descending Houston Center
12:50PM 29.8061 -98.0806 245° Southwest 307 353 10,700 -1,320 Descending Houston Center
12:51PM 29.7717 -98.1594 243° Southwest 267 307 9,100 -1,620 Descending Houston Center
12:52PM 29.7389 -98.2358 244° Southwest 264 304 7,500 -1,620 Descending Houston Center
12:53PM 29.7114 -98.3017 244° Southwest 250 288 6,100 -1,200 Descending Houston Center
12:53PM 29.7008 -98.3267 244° Southwest 235 270 6,000 -120 Descending Houston Center
12:54PM 29.6858 -98.3650 246° West 211 243 6,000  Level Houston Center
12:54PM 29.6742 -98.3875 239° Southwest 216 249 6,000 -420 Level Houston Center
12:55PM 29.6578 -98.4261 244° Southwest 214 246 5,600 -1,020 Descending Houston Center
12:55PM 29.6514 -98.4567 256° West 222 255 5,000 -1,320 Descending Houston Center
12:56PM 29.6747 -98.4961 304° West 247 284 4,300 -900 Descending Houston Center
12:57PM 29.6892 -98.5197 305° West 238 274 4,100 -300 Descending Houston Center
12:57PM 29.7139 -98.5564 308° West 233 268 4,000 -120 Descending Houston Center
12:58PM 29.7269 -98.5767 307° West 228 262 4,000  Level Houston Center
12:58PM 29.7531 -98.6167 307° West 219 252 4,000  Level Houston Center
12:59PM 29.7614 -98.6394 293° West 220 253 4,000  Level Houston Center
12:59PM 29.7447 -98.6658 234° Southwest 187 215 4,000  Level Houston Center
01:00PM 29.7256 -98.6806 214° Southwest 189 217 4,000 -300 Level Houston Center
01:00PM 29.7017 -98.6756 170° South 164 189 3,700 -900 Descending Houston Center
01:01PM 29.6800 -98.6614 150° Southeast 164 189 3,100 -720 Descending Houston Center
01:01PM 29.6631 -98.6442 139° Southeast 159 183 3,000 -120 Descending Houston Center
01:02PM 29.6503 -98.6236 126° Southeast 159 183 3,000  Level Houston Center
01:02PM 29.6342 -98.6044 134° Southeast 161 185 3,000  Level Houston Center
01:03PM 29.6203 -98.5853 130° Southeast 161 185 3,000 -300 Level Houston Center
01:03PM 29.6056 -98.5669 133° Southeast 161 185 2,700 -660 Descending Houston Center